createdAt,value
2024-04-25T00:00:23.518Z,27.00
2024-04-25T00:01:23.590Z,26.98
2024-04-25T00:02:23.719Z,26.98
2024-04-25T00:03:23.825Z,26.96
2024-04-25T00:04:23.780Z,27.00
2024-04-25T00:05:23.818Z,27.00
2024-04-25T00:06:23.874Z,26.96
2024-04-25T00:07:23.918Z,27.00
2024-04-25T00:08:24.022Z,27.01
2024-04-25T00:09:24.041Z,27.00
2024-04-25T00:10:24.112Z,27.01
2024-04-25T00:11:24.239Z,27.00
2024-04-25T00:12:24.214Z,27.00
2024-04-25T00:13:24.258Z,26.98
2024-04-25T00:14:24.342Z,26.98
2024-04-25T00:15:24.360Z,27.00
2024-04-25T00:16:24.440Z,26.98
2024-04-25T00:17:24.453Z,27.01
2024-04-25T00:18:24.540Z,27.00
2024-04-25T00:19:24.575Z,27.00
2024-04-25T00:20:24.736Z,27.01
2024-04-25T00:21:24.673Z,27.01
2024-04-25T00:22:24.783Z,27.00
2024-04-25T00:23:24.843Z,26.98
2024-04-25T00:24:24.835Z,27.00
2024-04-25T00:25:24.920Z,26.98
2024-04-25T00:26:25.006Z,26.98
2024-04-25T00:27:25.028Z,27.01
2024-04-25T00:28:25.078Z,26.98
2024-04-25T00:29:25.181Z,27.03
2024-04-25T00:30:25.194Z,27.01
2024-04-25T00:31:25.274Z,27.01
2024-04-25T00:32:25.433Z,27.01
2024-04-25T00:33:25.461Z,27.05
2024-04-25T00:34:25.428Z,27.03
2024-04-25T00:35:25.544Z,27.03
2024-04-25T00:36:25.540Z,27.04
2024-04-25T00:37:25.624Z,27.03
2024-04-25T00:38:25.679Z,27.01
2024-04-25T00:39:25.644Z,27.00
2024-04-25T00:40:25.669Z,27.01
2024-04-25T00:41:25.684Z,27.04
2024-04-25T00:42:25.649Z,27.04
2024-04-25T00:43:25.676Z,27.03
2024-04-25T00:44:25.684Z,27.03
2024-04-25T00:45:25.704Z,27.03
2024-04-25T00:46:25.662Z,27.03
2024-04-25T00:47:25.734Z,27.04
2024-04-25T00:48:25.817Z,27.01
2024-04-25T00:49:25.712Z,27.01
2024-04-25T00:50:25.785Z,27.03
2024-04-25T00:51:25.784Z,27.01
2024-04-25T00:52:25.820Z,27.01
2024-04-25T00:53:25.882Z,27.01
2024-04-25T00:54:25.926Z,27.00
2024-04-25T00:55:25.972Z,27.04
2024-04-25T00:56:26.039Z,27.03
2024-04-25T00:57:26.079Z,27.04
2024-04-25T00:58:26.138Z,27.01
2024-04-25T00:59:26.261Z,27.01
2024-04-25T01:00:26.276Z,27.03
2024-04-25T01:01:26.311Z,27.03
2024-04-25T01:02:26.429Z,27.03
2024-04-25T01:03:26.433Z,27.03
2024-04-25T01:04:26.568Z,27.00
2024-04-25T01:05:26.526Z,27.03
2024-04-25T01:06:26.548Z,27.00
2024-04-25T01:07:26.588Z,27.03
2024-04-25T01:08:26.689Z,27.01
2024-04-25T01:09:26.735Z,27.01
2024-04-25T01:10:26.740Z,27.04
2024-04-25T01:11:26.875Z,27.01
2024-04-25T01:12:26.857Z,27.01
2024-04-25T01:13:26.880Z,27.00
2024-04-25T01:14:26.958Z,27.04
2024-04-25T01:15:26.970Z,27.01
2024-04-25T01:16:27.055Z,27.00
2024-04-25T01:17:27.193Z,27.00
2024-04-25T01:18:27.166Z,27.00
2024-04-25T01:19:27.180Z,26.98
2024-04-25T01:20:27.312Z,26.98
2024-04-25T01:21:27.268Z,26.98
2024-04-25T01:22:27.327Z,26.98
2024-04-25T01:23:27.423Z,27.00
2024-04-25T01:24:27.457Z,27.00
2024-04-25T01:25:27.494Z,26.98
2024-04-25T01:26:27.565Z,26.96
2024-04-25T01:27:27.590Z,27.00
2024-04-25T01:28:27.647Z,27.00
2024-04-25T01:29:27.745Z,26.98
2024-04-25T01:30:27.760Z,26.98
2024-04-25T01:31:27.819Z,26.97
2024-04-25T01:32:27.969Z,26.97
2024-04-25T01:33:27.998Z,26.96
2024-04-25T01:34:27.900Z,26.98
2024-04-25T01:35:27.983Z,27.00
2024-04-25T01:36:27.913Z,26.96
2024-04-25T01:37:27.937Z,26.94
2024-04-25T01:38:27.916Z,26.97
2024-04-25T01:39:27.918Z,26.96
2024-04-25T01:40:27.936Z,26.96
2024-04-25T01:41:27.946Z,26.94
2024-04-25T01:42:27.912Z,26.98
2024-04-25T01:43:27.981Z,26.96
2024-04-25T01:44:28.044Z,26.94
2024-04-25T01:45:28.086Z,26.94
2024-04-25T01:46:28.147Z,26.97
2024-04-25T01:47:28.380Z,26.97
2024-04-25T01:48:28.398Z,26.97
2024-04-25T01:49:28.315Z,26.94
2024-04-25T01:50:28.569Z,26.96
2024-04-25T01:51:28.443Z,26.96
2024-04-25T01:52:28.464Z,26.97
2024-04-25T01:53:28.555Z,26.96
2024-04-25T01:54:28.569Z,26.97
2024-04-25T01:55:28.647Z,26.97
2024-04-25T01:56:28.733Z,26.97
2024-04-25T01:57:28.780Z,26.97
2024-04-25T01:58:28.849Z,26.97
2024-04-25T01:59:28.924Z,26.98
2024-04-25T02:00:28.957Z,26.97
2024-04-25T02:01:29.018Z,26.97
2024-04-25T02:02:29.121Z,26.98
2024-04-25T02:03:29.126Z,26.98
2024-04-25T02:04:29.169Z,26.98
2024-04-25T02:05:29.274Z,27.00
2024-04-25T02:06:29.266Z,26.96
2024-04-25T02:07:29.334Z,26.94
2024-04-25T02:08:29.427Z,26.97
2024-04-25T02:09:29.435Z,26.97
2024-04-25T02:10:29.517Z,26.96
2024-04-25T02:11:29.648Z,26.96
2024-04-25T02:12:29.602Z,26.97
2024-04-25T02:13:29.603Z,26.97
2024-04-25T02:14:29.624Z,26.98
2024-04-25T02:15:29.620Z,26.97
2024-04-25T02:16:29.604Z,26.97
2024-04-25T02:17:29.691Z,26.98
2024-04-25T02:18:29.702Z,26.97
2024-04-25T02:19:29.609Z,26.97
2024-04-25T02:20:29.667Z,26.96
2024-04-25T02:21:29.635Z,26.98
2024-04-25T02:22:29.715Z,26.96
2024-04-25T02:23:29.779Z,26.98
2024-04-25T02:24:29.815Z,26.97
2024-04-25T02:25:29.866Z,26.97
2024-04-25T02:26:29.953Z,26.96
2024-04-25T02:27:29.965Z,26.97
2024-04-25T02:28:30.012Z,26.98
2024-04-25T02:29:30.134Z,26.98
2024-04-25T02:30:30.108Z,26.98
2024-04-25T02:31:30.155Z,26.97
2024-04-25T02:32:30.296Z,26.97
2024-04-25T02:33:30.265Z,27.01
2024-04-25T02:34:30.314Z,26.97
2024-04-25T02:35:30.397Z,27.00
2024-04-25T02:36:30.445Z,27.00
2024-04-25T02:37:30.495Z,26.98
2024-04-25T02:38:30.546Z,26.98
2024-04-25T02:39:30.599Z,27.01
2024-04-25T02:40:30.668Z,27.00
2024-04-25T02:41:30.748Z,27.00
2024-04-25T02:42:30.794Z,26.97
2024-04-25T02:43:30.868Z,26.97
2024-04-25T02:44:30.955Z,26.97
2024-04-25T02:45:30.984Z,26.98
2024-04-25T02:46:31.040Z,26.97
2024-04-25T02:47:31.162Z,26.98
2024-04-25T02:48:31.242Z,26.97
2024-04-25T02:49:31.239Z,26.98
2024-04-25T02:50:31.306Z,26.98
2024-04-25T02:51:31.371Z,26.97
2024-04-25T02:52:31.413Z,27.00
2024-04-25T02:53:31.547Z,26.98
2024-04-25T02:54:31.558Z,26.98
2024-04-25T02:55:31.603Z,26.97
2024-04-25T02:56:31.678Z,27.00
2024-04-25T02:57:31.608Z,27.01
2024-04-25T02:58:31.612Z,26.98
2024-04-25T02:59:31.631Z,26.97
2024-04-25T03:00:31.622Z,26.97
2024-04-25T03:01:31.622Z,26.97
2024-04-25T03:02:31.705Z,26.98
2024-04-25T03:03:31.755Z,26.98
2024-04-25T03:04:31.686Z,26.98
2024-04-25T03:05:31.740Z,26.98
2024-04-25T03:06:31.818Z,26.98
2024-04-25T03:07:31.853Z,26.98
2024-04-25T03:08:31.945Z,26.96
2024-04-25T03:09:32.002Z,26.98
2024-04-25T03:10:32.042Z,26.98
2024-04-25T03:11:32.207Z,26.98
2024-04-25T03:12:32.179Z,26.96
2024-04-25T03:13:32.230Z,26.96
2024-04-25T03:14:32.369Z,26.97
2024-04-25T03:15:32.370Z,26.96
2024-04-25T03:16:32.433Z,26.96
2024-04-25T03:17:32.625Z,26.94
2024-04-25T03:18:32.620Z,26.97
2024-04-25T03:19:32.610Z,26.97
2024-04-25T03:20:32.709Z,26.96
2024-04-25T03:21:32.718Z,26.96
2024-04-25T03:22:32.757Z,26.94
2024-04-25T03:23:32.833Z,26.96
2024-04-25T03:24:32.880Z,26.96
2024-04-25T03:25:32.886Z,26.97
2024-04-25T03:26:32.912Z,26.94
2024-04-25T03:27:32.866Z,26.94
2024-04-25T03:28:32.886Z,26.96
2024-04-25T03:29:32.955Z,26.94
2024-04-25T03:30:32.893Z,26.91
2024-04-25T03:31:32.868Z,26.89
2024-04-25T03:32:32.950Z,26.86
2024-04-25T03:33:33.060Z,26.84
2024-04-25T03:34:32.968Z,26.82
2024-04-25T03:35:33.087Z,26.77
2024-04-25T03:36:33.036Z,26.72
2024-04-25T03:37:33.012Z,26.69
2024-04-25T03:38:33.079Z,26.67
2024-04-25T03:39:33.029Z,26.63
2024-04-25T03:40:33.063Z,26.60
2024-04-25T03:41:33.112Z,26.58
2024-04-25T03:42:33.082Z,26.56
2024-04-25T03:43:33.086Z,26.53
2024-04-25T03:44:33.105Z,26.53
2024-04-25T03:45:33.132Z,26.48
2024-04-25T03:46:33.143Z,26.43
2024-04-25T03:47:33.305Z,26.43
2024-04-25T03:48:33.314Z,26.43
2024-04-25T03:49:33.226Z,26.42
2024-04-25T03:50:33.281Z,26.39
2024-04-25T03:51:33.295Z,26.39
2024-04-25T03:52:33.310Z,26.36
2024-04-25T03:53:33.386Z,26.36
2024-04-25T03:54:33.367Z,26.34
2024-04-25T03:55:33.399Z,26.32
2024-04-25T03:56:33.482Z,26.31
2024-04-25T03:57:33.462Z,26.28
2024-04-25T03:58:33.507Z,26.32
2024-04-25T03:59:33.539Z,26.30
2024-04-25T04:00:33.548Z,26.30
2024-04-25T04:01:33.576Z,26.27
2024-04-25T04:02:33.695Z,26.27
2024-04-25T04:03:33.638Z,26.27
2024-04-25T04:04:33.651Z,26.25
2024-04-25T04:05:33.710Z,26.22
2024-04-25T04:06:33.682Z,26.20
2024-04-25T04:07:33.691Z,26.20
2024-04-25T04:08:33.737Z,26.21
2024-04-25T04:09:33.735Z,26.18
2024-04-25T04:10:33.762Z,26.20
2024-04-25T04:11:33.834Z,26.18
2024-04-25T04:12:33.794Z,26.18
2024-04-25T04:13:33.799Z,26.20
2024-04-25T04:14:33.913Z,26.17
2024-04-25T04:15:33.872Z,26.18
2024-04-25T04:16:33.946Z,26.14
2024-04-25T04:17:33.974Z,26.17
2024-04-25T04:18:33.957Z,26.14
2024-04-25T04:19:33.976Z,26.15
2024-04-25T04:20:34.074Z,26.13
2024-04-25T04:21:34.058Z,26.13
2024-04-25T04:22:34.072Z,26.13
2024-04-25T04:23:41.355Z,26.07
2024-04-25T04:24:41.270Z,26.08
2024-04-25T04:25:41.288Z,26.09
2024-04-25T04:26:41.369Z,26.11
2024-04-25T04:27:41.267Z,26.09
2024-04-25T04:28:41.267Z,26.09
2024-04-25T04:29:41.343Z,26.11
2024-04-25T04:30:41.285Z,26.11
2024-04-25T04:31:53.366Z,26.07
2024-04-25T04:32:53.467Z,26.05
2024-04-25T04:33:53.551Z,26.08
2024-04-25T04:34:53.375Z,26.07
2024-04-25T04:35:53.368Z,26.08
2024-04-25T04:36:53.372Z,26.07
2024-04-25T04:37:53.366Z,26.07
2024-04-25T04:38:53.375Z,26.07
2024-04-25T04:39:53.382Z,26.05
2024-04-25T04:40:53.379Z,26.08
2024-04-25T04:41:53.366Z,26.09
2024-04-25T04:42:53.359Z,26.08
2024-04-25T04:43:53.369Z,26.07
2024-04-25T04:44:53.378Z,26.07
2024-04-25T04:45:53.392Z,26.08
2024-04-25T04:46:53.421Z,26.08
2024-04-25T04:47:53.414Z,26.07
2024-04-25T04:48:53.496Z,26.07
2024-04-25T04:49:53.403Z,26.04
2024-04-25T04:50:53.410Z,26.05
2024-04-25T04:51:53.400Z,26.07
2024-04-25T04:52:53.412Z,26.05
2024-04-25T04:53:53.396Z,26.05
2024-04-25T04:54:53.398Z,26.03
2024-04-25T04:55:53.405Z,26.04
2024-04-25T04:56:53.395Z,26.05
2024-04-25T04:57:53.430Z,26.04
2024-04-25T04:58:53.404Z,26.04
2024-04-25T04:59:53.415Z,26.07
2024-04-25T05:00:53.439Z,26.03
2024-04-25T05:01:53.403Z,26.04
2024-04-25T05:02:53.458Z,26.03
2024-04-25T05:03:53.447Z,26.03
2024-04-25T05:04:53.413Z,26.03
2024-04-25T05:05:53.411Z,26.04
2024-04-25T05:06:53.419Z,26.03
2024-04-25T05:07:53.442Z,26.05
2024-04-25T05:08:53.417Z,26.03
2024-04-25T05:09:53.436Z,26.04
2024-04-25T05:10:53.425Z,26.04
2024-04-25T05:11:53.466Z,26.03
2024-04-25T05:12:53.407Z,26.01
2024-04-25T05:13:53.481Z,26.01
2024-04-25T05:14:53.483Z,26.03
2024-04-25T05:15:53.577Z,26.03
2024-04-25T05:16:53.543Z,26.03
2024-04-25T05:17:53.616Z,26.00
2024-04-25T05:18:53.620Z,26.01
2024-04-25T05:19:53.666Z,26.00
2024-04-25T05:20:53.695Z,26.00
2024-04-25T05:21:53.724Z,26.00
2024-04-25T05:22:53.769Z,26.00
2024-04-25T05:23:53.813Z,26.04
2024-04-25T05:24:53.810Z,26.01
2024-04-25T05:25:53.851Z,26.00
2024-04-25T05:26:53.891Z,26.00
2024-04-25T05:27:53.924Z,26.01
2024-04-25T05:28:53.967Z,26.00
2024-04-25T05:29:54.035Z,26.01
2024-04-25T05:30:54.035Z,26.00
2024-04-25T05:31:54.062Z,25.98
2024-04-25T05:32:54.201Z,25.94
2024-04-25T05:33:54.243Z,25.93
2024-04-25T05:34:54.158Z,25.96
2024-04-25T05:35:54.171Z,26.00
2024-04-25T05:36:54.144Z,26.07
2024-04-25T05:37:54.141Z,26.13
2024-04-25T05:38:54.189Z,26.17
2024-04-25T05:39:54.149Z,26.21
2024-04-25T05:40:54.153Z,26.24
2024-04-25T05:41:54.168Z,26.28
2024-04-25T05:42:54.147Z,26.32
2024-04-25T05:43:54.164Z,26.35
2024-04-25T05:44:54.163Z,26.24
2024-04-25T05:45:54.166Z,26.31
2024-04-25T05:46:54.160Z,26.34
2024-04-25T05:47:54.325Z,26.35
2024-04-25T05:48:54.233Z,26.34
2024-04-25T05:49:54.158Z,26.32
2024-04-25T05:50:54.233Z,26.41
2024-04-25T05:51:54.167Z,26.45
2024-04-25T05:52:54.179Z,26.48
2024-04-25T05:53:54.185Z,26.50
2024-04-25T05:54:54.156Z,26.52
2024-04-25T05:55:54.180Z,26.53
2024-04-25T05:56:54.169Z,26.52
2024-04-25T05:57:54.173Z,26.58
2024-04-25T05:58:54.168Z,26.58
2024-04-25T05:59:54.185Z,26.59
2024-04-25T06:00:54.199Z,26.60
2024-04-25T06:01:54.180Z,26.62
2024-04-25T06:02:54.350Z,26.60
2024-04-25T06:03:54.338Z,26.60
2024-04-25T06:04:54.194Z,26.63
2024-04-25T06:05:54.255Z,26.67
2024-04-25T06:06:54.197Z,26.66
2024-04-25T06:07:54.202Z,26.66
2024-04-25T06:08:54.242Z,26.64
2024-04-25T06:09:54.266Z,26.67
2024-04-25T06:10:54.359Z,26.67
2024-04-25T06:11:54.310Z,26.64
2024-04-25T06:12:54.317Z,26.66
2024-04-25T06:13:54.215Z,26.66
2024-04-25T06:14:54.204Z,26.66
2024-04-25T06:15:54.246Z,26.70
2024-04-25T06:16:54.272Z,26.69
2024-04-25T06:17:54.322Z,26.66
2024-04-25T06:18:54.242Z,26.67
2024-04-25T06:19:54.323Z,26.66
2024-04-25T06:20:54.423Z,26.69
2024-04-25T06:21:54.422Z,26.66
2024-04-25T06:22:54.473Z,26.70
2024-04-25T06:23:55.791Z,26.72
2024-04-25T06:24:54.572Z,26.70
2024-04-25T06:25:54.645Z,26.70
2024-04-25T06:26:54.709Z,26.72
2024-04-25T06:27:54.790Z,26.72
2024-04-25T06:28:54.847Z,26.69
2024-04-25T06:29:54.897Z,26.69
2024-04-25T06:30:54.986Z,26.75
2024-04-25T06:31:55.091Z,26.72
2024-04-25T06:32:55.435Z,26.73
2024-04-25T06:33:55.129Z,26.73
2024-04-25T06:34:55.101Z,26.76
2024-04-25T06:35:55.166Z,26.79
2024-04-25T06:36:55.143Z,26.91
2024-04-25T06:37:55.109Z,27.01
2024-04-25T06:38:55.126Z,27.17
2024-04-25T06:39:55.118Z,27.30
2024-04-25T06:40:55.172Z,27.45
2024-04-25T06:41:58.871Z,27.59
2024-04-25T06:42:55.118Z,27.77
2024-04-25T06:43:58.276Z,27.92
2024-04-25T06:44:55.170Z,28.10
2024-04-25T06:45:55.132Z,28.17
2024-04-25T06:46:55.123Z,27.87
2024-04-25T06:47:55.261Z,27.79
2024-04-25T06:48:55.398Z,27.63
2024-04-25T06:49:55.127Z,27.55
2024-04-25T06:50:55.163Z,27.46
2024-04-25T06:51:55.157Z,27.49
2024-04-25T06:52:55.132Z,27.46
2024-04-25T06:53:55.136Z,27.37
2024-04-25T06:54:55.145Z,27.31
2024-04-25T06:55:55.208Z,27.24
2024-04-25T06:56:55.158Z,27.21
2024-04-25T06:57:55.139Z,27.20
2024-04-25T06:58:55.169Z,27.17
2024-04-25T06:59:55.250Z,27.21
2024-04-25T07:00:55.211Z,27.20
2024-04-25T07:01:55.189Z,27.17
2024-04-25T07:02:55.284Z,27.14
2024-04-25T07:03:55.249Z,27.11
2024-04-25T07:04:57.829Z,27.13
2024-04-25T07:05:55.208Z,27.08
2024-04-25T07:06:55.180Z,27.07
2024-04-25T07:07:55.175Z,27.05
2024-04-25T07:08:55.176Z,27.03
2024-04-25T07:09:55.180Z,27.01
2024-04-25T07:10:55.200Z,27.01
2024-04-25T07:11:55.256Z,27.03
2024-04-25T07:12:55.190Z,27.01
2024-04-25T07:13:55.196Z,27.00
2024-04-25T07:14:55.224Z,27.01
2024-04-25T07:15:55.194Z,26.98
2024-04-25T07:16:55.203Z,26.96
2024-04-25T07:17:55.390Z,26.98
2024-04-25T07:18:55.294Z,26.97
2024-04-25T07:19:55.214Z,26.94
2024-04-25T07:20:55.192Z,26.94
2024-04-25T07:21:55.205Z,26.91
2024-04-25T07:22:55.217Z,26.87
2024-04-25T07:23:55.206Z,26.82
2024-04-25T07:24:55.215Z,26.77
2024-04-25T07:25:55.203Z,26.73
2024-04-25T07:26:55.200Z,26.67
2024-04-25T07:27:55.197Z,26.63
2024-04-25T07:28:55.201Z,26.59
2024-04-25T07:29:55.250Z,26.56
2024-04-25T07:30:55.216Z,26.48
2024-04-25T07:31:55.281Z,26.46
2024-04-25T07:32:55.323Z,26.42
2024-04-25T07:33:55.339Z,26.36
2024-04-25T07:34:55.223Z,26.36
2024-04-25T07:35:55.308Z,26.34
2024-04-25T07:36:55.215Z,26.31
2024-04-25T07:37:55.257Z,26.25
2024-04-25T07:38:55.308Z,26.28
2024-04-25T07:39:55.217Z,26.31
2024-04-25T07:40:55.244Z,26.34
2024-04-25T07:41:55.258Z,26.36
2024-04-25T07:42:55.255Z,26.41
2024-04-25T07:43:55.314Z,26.42
2024-04-25T07:44:55.223Z,26.43
2024-04-25T07:45:55.217Z,26.45
2024-04-25T07:46:55.231Z,26.49
2024-04-25T07:47:55.425Z,26.50
2024-04-25T07:48:55.330Z,26.53
2024-04-25T07:49:55.233Z,26.55
2024-04-25T07:50:55.236Z,26.60
2024-04-25T07:51:55.285Z,26.64
2024-04-25T07:52:55.325Z,26.64
2024-04-25T07:53:55.351Z,26.67
2024-04-25T07:54:55.319Z,26.70
2024-04-25T07:55:55.322Z,26.70
2024-04-25T07:56:55.345Z,26.73
2024-04-25T07:57:55.324Z,26.75
2024-04-25T07:58:55.328Z,26.76
2024-04-25T07:59:55.342Z,26.79
2024-04-25T08:00:55.370Z,26.84
2024-04-25T08:01:55.343Z,26.84
2024-04-25T08:02:55.418Z,26.87
2024-04-25T08:03:55.342Z,26.89
2024-04-25T08:04:55.424Z,26.89
2024-04-25T08:05:55.452Z,26.89
2024-04-25T08:06:55.462Z,26.93
2024-04-25T08:07:55.538Z,26.91
2024-04-25T08:08:55.601Z,26.96
2024-04-25T08:09:55.657Z,26.94
2024-04-25T08:10:55.784Z,26.96
2024-04-25T08:11:55.828Z,26.96
2024-04-25T08:12:55.814Z,26.98
2024-04-25T08:13:58.732Z,27.00
2024-04-25T08:14:55.910Z,27.00
2024-04-25T08:15:56.008Z,27.01
2024-04-25T08:16:55.876Z,27.00
2024-04-25T08:17:55.964Z,27.03
2024-04-25T08:18:55.904Z,27.03
2024-04-25T08:19:55.875Z,27.03
2024-04-25T08:20:55.965Z,27.04
2024-04-25T08:21:56.061Z,27.04
2024-04-25T08:22:55.878Z,27.04
2024-04-25T08:23:55.886Z,27.04
2024-04-25T08:24:55.874Z,27.03
2024-04-25T08:25:55.913Z,27.04
2024-04-25T08:26:55.946Z,27.04
2024-04-25T08:27:55.883Z,27.03
2024-04-25T08:28:55.891Z,27.04
2024-04-25T08:29:55.874Z,27.05
2024-04-25T08:30:55.894Z,27.08
2024-04-25T08:31:55.916Z,27.04
2024-04-25T08:32:56.292Z,27.04
2024-04-25T08:33:56.175Z,27.04
2024-04-25T08:34:55.887Z,27.04
2024-04-25T08:35:55.905Z,27.04
2024-04-25T08:36:55.885Z,27.01
2024-04-25T08:37:55.922Z,27.04
2024-04-25T08:38:55.996Z,27.01
2024-04-25T08:39:56.120Z,27.01
2024-04-25T08:40:56.072Z,27.01
2024-04-25T08:41:56.145Z,27.03
2024-04-25T08:42:56.191Z,27.01
2024-04-25T08:43:56.240Z,27.01
2024-04-25T08:44:56.309Z,27.01
2024-04-25T08:45:56.369Z,27.01
2024-04-25T08:46:56.476Z,26.98
2024-04-25T08:47:56.591Z,26.97
2024-04-25T08:48:56.538Z,26.98
2024-04-25T08:49:56.603Z,26.98
2024-04-25T08:50:56.724Z,26.98
2024-04-25T08:51:56.733Z,26.98
2024-04-25T08:52:56.758Z,26.97
2024-04-25T08:53:56.831Z,26.98
2024-04-25T08:54:56.876Z,26.96
2024-04-25T08:55:56.932Z,26.97
2024-04-25T08:56:56.993Z,26.98
2024-04-25T08:57:57.039Z,26.97
2024-04-25T08:58:57.116Z,26.97
2024-04-25T08:59:57.151Z,27.00
2024-04-25T09:00:57.264Z,27.03
2024-04-25T09:01:57.260Z,27.00
2024-04-25T09:02:57.379Z,27.00
2024-04-25T09:03:57.401Z,26.98
2024-04-25T09:04:57.435Z,27.01
2024-04-25T09:05:57.475Z,27.03
2024-04-25T09:06:57.558Z,27.01
2024-04-25T09:07:57.612Z,27.01
2024-04-25T09:08:57.704Z,27.04
2024-04-25T09:09:57.759Z,27.03
2024-04-25T09:10:57.785Z,27.04
2024-04-25T09:11:57.986Z,27.04
2024-04-25T09:12:57.901Z,27.05
2024-04-25T09:13:57.919Z,27.07
2024-04-25T09:14:57.904Z,27.07
2024-04-25T09:15:57.911Z,27.05
2024-04-25T09:16:57.959Z,27.08
2024-04-25T09:17:58.001Z,27.07
2024-04-25T09:18:57.922Z,27.08
2024-04-25T09:19:57.929Z,27.10
2024-04-25T09:20:57.951Z,27.07
2024-04-25T09:21:57.940Z,27.07
2024-04-25T09:22:58.726Z,27.05
2024-04-25T09:23:57.960Z,27.01
2024-04-25T09:24:58.024Z,26.98
2024-04-25T09:25:58.074Z,26.96
2024-04-25T09:26:58.172Z,26.93
2024-04-25T09:27:58.213Z,26.91
2024-04-25T09:28:58.289Z,26.91
2024-04-25T09:29:58.352Z,26.93
2024-04-25T09:30:58.418Z,26.91
2024-04-25T09:31:58.501Z,26.91
2024-04-25T09:32:58.676Z,26.94
2024-04-25T09:33:58.684Z,26.98
2024-04-25T09:35:02.351Z,26.97
2024-04-25T09:35:59.708Z,26.98
2024-04-25T09:36:58.707Z,27.01
2024-04-25T09:37:58.685Z,27.03
2024-04-25T09:38:58.700Z,27.07
2024-04-25T09:40:03.695Z,27.07
2024-04-25T09:40:59.715Z,27.11
2024-04-25T09:41:58.689Z,27.13
2024-04-25T09:42:58.694Z,27.17
2024-04-25T09:43:58.704Z,27.22
2024-04-25T09:44:58.753Z,27.31
2024-04-25T09:45:58.748Z,27.34
2024-04-25T09:47:01.903Z,27.37
2024-04-25T09:47:58.807Z,27.42
2024-04-25T09:48:58.693Z,27.42
2024-04-25T09:49:58.705Z,27.44
2024-04-25T09:50:58.763Z,27.48
2024-04-25T09:51:58.708Z,27.50
2024-04-25T09:53:00.632Z,27.52
2024-04-25T09:53:58.732Z,27.55
2024-04-25T09:54:58.705Z,27.62
2024-04-25T09:55:58.709Z,27.60
2024-04-25T09:56:58.722Z,27.63
2024-04-25T09:57:58.722Z,27.65
2024-04-25T09:58:58.721Z,27.70
2024-04-25T09:59:58.758Z,27.73
2024-04-25T10:00:58.728Z,27.79
2024-04-25T10:01:58.759Z,27.79
2024-04-25T10:02:58.785Z,27.79
2024-04-25T10:03:58.774Z,27.80
2024-04-25T10:04:58.753Z,27.84
2024-04-25T10:05:58.740Z,27.84
2024-04-25T10:06:58.731Z,27.87
2024-04-25T10:07:58.718Z,27.87
2024-04-25T10:08:58.884Z,27.89
2024-04-25T10:09:58.735Z,27.89
2024-04-25T10:11:03.089Z,27.93
2024-04-25T10:11:59.916Z,27.94
2024-04-25T10:12:58.738Z,27.96
2024-04-25T10:13:58.732Z,27.99
2024-04-25T10:14:58.736Z,28.03
2024-04-25T10:15:58.735Z,28.03
2024-04-25T10:17:01.667Z,28.03
2024-04-25T10:17:58.815Z,28.04
2024-04-25T10:18:58.858Z,28.05
2024-04-25T10:19:58.764Z,28.08
2024-04-25T10:20:58.761Z,28.12
2024-04-25T10:21:58.755Z,28.14
2024-04-25T10:22:58.754Z,28.15
2024-04-25T10:23:58.767Z,28.17
2024-04-25T10:24:58.773Z,28.21
2024-04-25T10:25:58.763Z,28.24
2024-04-25T10:26:58.816Z,28.22
2024-04-25T10:27:58.760Z,28.24
2024-04-25T10:29:00.324Z,28.24
2024-04-25T10:29:58.992Z,28.21
2024-04-25T10:30:59.032Z,28.17
2024-04-25T10:31:59.073Z,28.20
2024-04-25T10:32:59.172Z,28.21
2024-04-25T10:33:59.068Z,28.21
2024-04-25T10:34:59.068Z,28.20
2024-04-25T10:35:59.108Z,28.20
2024-04-25T10:36:59.044Z,28.20
2024-04-25T10:37:59.046Z,28.20
2024-04-25T10:39:05.382Z,28.21
2024-04-25T10:40:00.062Z,28.25
2024-04-25T10:40:59.074Z,28.27
2024-04-25T10:41:59.103Z,28.30
2024-04-25T10:43:01.399Z,28.32
2024-04-25T10:44:00.070Z,28.28
2024-04-25T10:44:59.099Z,28.30
2024-04-25T10:45:59.076Z,28.32
2024-04-25T10:46:59.092Z,28.31
2024-04-25T10:47:59.185Z,28.30
2024-04-25T10:49:02.467Z,28.31
2024-04-25T10:49:59.101Z,28.31
2024-04-25T10:50:59.096Z,28.30
2024-04-25T10:51:59.096Z,28.32
2024-04-25T10:52:59.083Z,28.34
2024-04-25T10:53:59.079Z,28.35
2024-04-25T10:54:59.089Z,28.37
2024-04-25T10:55:59.073Z,28.37
2024-04-25T10:56:59.096Z,28.38
2024-04-25T10:57:59.148Z,28.38
2024-04-25T10:58:59.208Z,28.37
2024-04-25T10:59:59.276Z,28.37
2024-04-25T11:00:59.330Z,28.38
2024-04-25T11:01:59.421Z,28.39
2024-04-25T11:02:59.545Z,28.39
2024-04-25T11:03:59.564Z,28.39
2024-04-25T11:04:59.574Z,28.45
2024-04-25T11:05:59.653Z,28.44
2024-04-25T11:06:59.708Z,28.45
2024-04-25T11:07:59.794Z,28.48
2024-04-25T11:08:59.841Z,28.47
2024-04-25T11:09:59.915Z,28.45
2024-04-25T11:11:00.009Z,28.45
2024-04-25T11:12:00.102Z,28.48
2024-04-25T11:13:00.132Z,28.49
2024-04-25T11:14:00.232Z,28.48
2024-04-25T11:15:00.286Z,28.48
2024-04-25T11:16:00.355Z,28.45
2024-04-25T11:17:00.437Z,28.47
2024-04-25T11:18:06.748Z,28.48
2024-04-25T11:19:07.571Z,28.51
2024-04-25T11:20:02.658Z,28.54
2024-04-25T11:21:00.765Z,28.56
2024-04-25T11:22:00.805Z,28.58
2024-04-25T11:23:00.759Z,28.60
2024-04-25T11:24:00.872Z,28.60
2024-04-25T11:25:00.758Z,28.63
2024-04-25T11:26:00.821Z,28.63
2024-04-25T11:27:00.870Z,28.65
2024-04-25T11:28:00.896Z,28.67
2024-04-25T11:29:00.892Z,28.67
2024-04-25T11:30:00.919Z,28.69
2024-04-25T11:31:03.053Z,28.70
2024-04-25T11:32:00.910Z,28.70
2024-04-25T11:33:00.998Z,28.72
2024-04-25T11:34:00.945Z,28.75
2024-04-25T11:35:00.887Z,28.76
2024-04-25T11:36:00.969Z,28.79
2024-04-25T11:37:00.901Z,28.79
2024-04-25T11:38:00.908Z,28.79
2024-04-25T11:39:00.912Z,28.79
2024-04-25T11:40:00.918Z,28.82
2024-04-25T11:41:00.935Z,28.83
2024-04-25T11:42:00.914Z,28.84
2024-04-25T11:43:00.931Z,28.86
2024-04-25T11:44:01.027Z,28.86
2024-04-25T11:45:00.907Z,28.87
2024-04-25T11:46:00.924Z,28.89
2024-04-25T11:47:00.934Z,28.89
2024-04-25T11:48:01.164Z,28.93
2024-04-25T11:49:00.981Z,28.92
2024-04-25T11:50:00.918Z,28.93
2024-04-25T11:51:04.486Z,28.93
2024-04-25T11:52:00.962Z,28.94
2024-04-25T11:53:00.922Z,28.96
2024-04-25T11:54:00.921Z,28.96
2024-04-25T11:55:00.926Z,28.99
2024-04-25T11:56:00.958Z,28.99
2024-04-25T11:57:01.016Z,29.01
2024-04-25T11:58:00.953Z,29.04
2024-04-25T11:59:00.931Z,29.03
2024-04-25T12:00:00.944Z,29.06
2024-04-25T12:01:00.930Z,29.07
2024-04-25T12:02:00.943Z,29.09
2024-04-25T12:03:01.009Z,29.07
2024-04-25T12:04:00.985Z,29.09
2024-04-25T12:05:00.972Z,29.09
2024-04-25T12:06:00.999Z,29.10
2024-04-25T12:07:00.946Z,29.10
2024-04-25T12:08:00.940Z,29.10
2024-04-25T12:09:00.942Z,29.13
2024-04-25T12:10:00.944Z,29.10
2024-04-25T12:11:00.964Z,29.07
2024-04-25T12:12:01.076Z,29.09
2024-04-25T12:13:01.019Z,29.11
2024-04-25T12:14:00.952Z,29.11
2024-04-25T12:15:00.950Z,29.13
2024-04-25T12:16:00.990Z,29.13
2024-04-25T12:17:00.969Z,29.16
2024-04-25T12:18:01.068Z,29.16
2024-04-25T12:19:01.003Z,29.17
2024-04-25T12:20:00.969Z,29.16
2024-04-25T12:21:01.020Z,29.18
2024-04-25T12:22:00.976Z,29.17
2024-04-25T12:23:00.985Z,29.17
2024-04-25T12:24:01.030Z,29.17
2024-04-25T12:25:01.012Z,29.20
2024-04-25T12:26:00.977Z,29.18
2024-04-25T12:27:00.982Z,29.21
2024-04-25T12:28:00.976Z,29.18
2024-04-25T12:29:00.996Z,29.16
2024-04-25T12:30:00.980Z,29.13
2024-04-25T12:31:00.977Z,29.16
2024-04-25T12:32:00.985Z,29.17
2024-04-25T12:33:01.164Z,29.18
2024-04-25T12:34:01.188Z,29.21
2024-04-25T12:35:01.026Z,29.20
2024-04-25T12:36:01.034Z,29.22
2024-04-25T12:37:01.054Z,29.24
2024-04-25T12:38:01.049Z,29.24
2024-04-25T12:39:01.070Z,29.24
2024-04-25T12:40:01.117Z,29.25
2024-04-25T12:41:01.119Z,29.27
2024-04-25T12:42:01.135Z,29.24
2024-04-25T12:43:01.120Z,29.28
2024-04-25T12:44:01.212Z,29.28
2024-04-25T12:45:01.207Z,29.25
2024-04-25T12:46:03.779Z,29.27
2024-04-25T12:47:01.217Z,29.28
2024-04-25T12:48:01.215Z,29.29
2024-04-25T12:49:01.262Z,29.31
2024-04-25T12:50:01.122Z,29.29
2024-04-25T12:51:01.177Z,29.31
2024-04-25T12:52:01.115Z,29.29
2024-04-25T12:53:01.121Z,29.29